• Join FlightAware (Why Join?)
  • Login
  • US Flag 
03:15AM EDT


 

Airport Tracker/Info


-or-


 

Live Flight TrackerFlight Track Log ✈ AFR1068 ✈ 10-Apr-2013 ✈ LFPG / CDG - EGCC / MAN

Flight Track Log - Related Links

Times and Time Zones

All times are in EDT time to prevent confusion due to time zone crossing. See the AFR1068 flight status page for this flight to view local times or setup timezone preferences in your user account.

Time Position Orientation Groundspeed Altitude Reporting Facility
EDT Latitude Longitude Course Direction KTS MPH feet Rate Location/Type
07:28AM 49.2174 2.3463 327° Northwest  Level Estimated
07:29AM 49.2855 2.2781 327° Northwest  Level Estimated
07:30AM 49.3536 2.2096 327° Northwest  Level Estimated
07:31AM 49.4217 2.1410 327° Northwest  Level Estimated
07:32AM 49.4897 2.0721 327° Northwest  Level Estimated
07:33AM 49.5577 2.0031 327° Northwest  Level Estimated
07:34AM 49.6256 1.9339 327° Northwest  Level Estimated
07:35AM 49.6935 1.8645 327° Northwest  Level Estimated
07:36AM 49.7613 1.7949 326° Northwest  Level Estimated
07:37AM 49.8291 1.7251 326° Northwest  Level Estimated
07:38AM 49.8969 1.6551 326° Northwest  Level Estimated
07:39AM 49.9646 1.5849 326° Northwest  Level Estimated
07:40AM 50.0323 1.5145 326° Northwest  Level Estimated
07:41AM 50.0999 1.4439 326° Northwest  Level Estimated
07:42AM 50.1675 1.3731 326° Northwest  Level Estimated
07:43AM 50.2350 1.3021 326° Northwest  Level Estimated
07:44AM 50.3025 1.2309 326° Northwest  Level Estimated
07:45AM 50.3700 1.1595 326° Northwest  Level Estimated
07:46AM 50.4374 1.0879 326° Northwest  Level Estimated
07:47AM 50.5048 1.0161 326° Northwest  Level Estimated
07:48AM 50.5721 0.9441 326° Northwest  Level Estimated
07:49AM 50.6394 0.8719 326° Northwest  Level Estimated
07:50AM 50.7066 0.7995 326° Northwest  Level Estimated
07:51AM 50.7738 0.7269 326° Northwest  Level Estimated
07:52AM 50.8410 0.6540 326° Northwest  Level Estimated
07:53AM 50.9081 0.5810 326° Northwest  Level Estimated
07:54AM 50.9751 0.5077 325° Northwest  Level Estimated
07:55AM 51.0421 0.4342 325° Northwest  Level Estimated
07:56AM 51.0939 0.3772 325° Northwest  Level Estimated
07:57AM 51.1457 0.3201 325° Northwest  Level Estimated
07:58AM 51.1975 0.2629 325° Northwest  Level Estimated
07:59AM 51.2492 0.2055 325° Northwest  Level Estimated
08:00AM 51.3010 0.1480 325° Northwest  Level Estimated
08:01AM 51.3526 0.0904 325° Northwest  Level Estimated
08:02AM 51.4043 0.0326 325° Northwest  Level Estimated
08:03AM 51.4559 -0.0253 325° Northwest  Level Estimated
08:04AM 51.5075 -0.0834 325° Northwest  Level Estimated
08:05AM 51.5591 -0.1415 325° Northwest  Level Estimated
08:06AM 51.6106 -0.1998 325° Northwest  Level Estimated
08:07AM 51.6621 -0.2582 325° Northwest  Level Estimated
08:08AM 51.7136 -0.3168 325° Northwest  Level Estimated
08:09AM 51.7651 -0.3755 325° Northwest  Level Estimated
08:10AM 51.8165 -0.4343 325° Northwest  Level Estimated
08:11AM 51.8679 -0.4933 325° Northwest  Level Estimated
08:12AM 51.9192 -0.5524 325° Northwest  Level Estimated
08:13AM 51.9706 -0.6116 325° Northwest  Level Estimated
08:14AM 52.0219 -0.6710 325° Northwest  Level Estimated
08:15AM 52.0731 -0.7305 325° Northwest  Level Estimated
08:16AM 52.1244 -0.7901 324° Northwest  Level Estimated
08:17AM 52.1756 -0.8499 324° Northwest  Level Estimated
08:18AM 52.2268 -0.9098 324° Northwest  Level Estimated
08:19AM 52.2779 -0.9699 324° Northwest  Level Estimated
08:20AM 52.3290 -1.0301 324° Northwest  Level Estimated
08:21AM 52.3801 -1.0904 324° Northwest  Level Estimated
08:22AM 52.4312 -1.1509 324° Northwest  Level Estimated
08:23AM 52.4822 -1.2115 324° Northwest  Level Estimated
08:24AM 52.5332 -1.2722 324° Northwest  Level Estimated
08:25AM 52.5842 -1.3331 324° Northwest  Level Estimated
08:26AM 52.6351 -1.3942 324° Northwest  Level Estimated
08:27AM 52.6860 -1.4553 324° Northwest  Level Estimated
08:28AM 52.7369 -1.5166 324° Northwest  Level Estimated
08:29AM 52.7877 -1.5781 324° Northwest  Level Estimated
08:30AM 52.8385 -1.6397 324° Northwest  Level Estimated
08:31AM 52.8893 -1.7015 324° Northwest  Level Estimated
08:32AM 52.9401 -1.7634 324° Northwest  Level Estimated
08:33AM 52.9908 -1.8254 324° Northwest  Level Estimated
08:34AM 53.0415 -1.8876 324° Northwest  Level Estimated
08:35AM 53.0921 -1.9499 324° Northwest  Level Estimated
08:36AM 53.1427 -2.0124 323° Northwest  Level Estimated
08:37AM 53.1933 -2.0751 323° Northwest  Level Estimated
08:38AM 53.2439 -2.1378 323° Northwest  Level Estimated
08:39AM 53.2944 -2.2008 323° Northwest  Level Estimated
08:40AM 53.3449 -2.2638 323° Northwest  Level Estimated
08:41AM 53.3537 -2.2750 323° Northwest  Level Estimated
08:42AM 53.3537 -2.2750 North  Level Estimated
08:43AM 53.3537 -2.2750 North  Level Estimated
08:44AM 53.3537 -2.2750 North  Level Estimated
08:45AM 53.3537 -2.2750 North  Level Estimated
08:46AM 53.3537 -2.2750 North  Level Estimated
08:47AM 53.3537 -2.2750 North  Level Estimated
08:48AM 53.3537 -2.2750 North  Level Estimated
08:49AM 53.3537 -2.2750 North  Level Estimated
08:50AM 53.3537 -2.2750 North  Level Estimated